Řízení letového provozu České republiky
Letiste: LKKB Aktualizace: 22.09.2019 10:00:29  UTC
 METAR LKKB 22.09. 10:00 ...
METAR LKKB 221000Z 08009KT CAVOK 16/05 Q1016 NOSIG RMK BLU BLU=
 TAF LKKB 22.09. 05:00 ...
TAF LKKB 220500Z 2206/2306 07006KT CAVOK      TEMPO 2210/2217 13010KT=